Time;durP1;ratioP1;P1;durP2;ratioP2;P2;SDS_P1;SDS_P2;PMS_P1;PMS_P2;Temp;Humidity;BMP_temperature;BMP_pressure;BME280_temperature;BME280_humidity;BME280_pressure;Samples;Min_cycle;Max_cycle;Signal;HPM_P1;HPM_P2
2022/02/06 00:00:17;;;;;;;84.85;60.63;;;;;;;;;;5026444;28;20057;-77
2022/02/06 00:02:46;;;;;;;80.35;55.50;;;;;;;;;;5026530;28;20022;-80
2022/02/06 00:05:13;;;;;;;93.57;60.05;;;;;;;;;;5026062;28;20057;-81
2022/02/06 00:07:39;;;;;;;78.38;55.28;;;;;;;;;;5024267;28;20408;-79
2022/02/06 00:10:06;;;;;;;81.47;55.05;;;;;;;;;;5029151;28;20017;-79
2022/02/06 00:12:32;;;;;;;77.88;55.90;;;;;;;;;;5026818;28;20034;-79
2022/02/06 00:14:58;;;;;;;84.82;57.95;;;;;;;;;;5025772;28;20024;-76
2022/02/06 00:17:28;;;;;;;83.35;56.33;;;;;;;;;;5029642;28;20022;-79
2022/02/06 00:19:54;;;;;;;87.93;64.85;;;;;;;;;;5026545;28;20088;-79
2022/02/06 00:22:40;;;;;;;96.15;66.82;;;;;;;;;;5028613;28;20389;-78
2022/02/06 00:25:15;;;;;;;87.28;59.78;;;;;;;;;;5029242;28;20014;-80
2022/02/06 00:32:55;;;;;;;85.93;58.38;;;;;;;;;;5029753;28;20037;-78
2022/02/06 00:38:23;;;;;;;100.63;65.53;;;;;;;;;;5027478;28;20029;-78
2022/02/06 00:43:18;;;;;;;80.68;56.83;;;;;;;;;;5022119;28;20042;-78
2022/02/06 00:45:45;;;;;;;83.47;56.97;;;;;;;;;;5025762;28;20036;-77
2022/02/06 00:48:11;;;;;;;77.45;54.95;;;;;;;;;;5027263;28;20508;-77
2022/02/06 00:50:42;;;;;;;80.82;56.80;;;;;;;;;;5045370;28;20018;-81
2022/02/06 00:53:15;;;;;;;82.85;59.42;;;;;;;;;;5025244;28;20025;-81
2022/02/06 00:55:41;;;;;;;82.22;59.10;;;;;;;;;;5027201;28;20021;-83
2022/02/06 00:58:07;;;;;;;86.63;56.45;;;;;;;;;;5027749;28;20033;-85
2022/02/06 01:00:33;;;;;;;79.30;54.92;;;;;;;;;;5028085;28;20021;-80
2022/02/06 01:03:00;;;;;;;76.10;51.22;;;;;;;;;;5028028;28;20112;-77
2022/02/06 01:05:26;;;;;;;74.10;49.75;;;;;;;;;;5032605;28;20018;-76
2022/02/06 01:07:53;;;;;;;103.82;75.78;;;;;;;;;;5028626;28;20044;-74
2022/02/06 01:10:20;;;;;;;86.95;57.88;;;;;;;;;;5026196;28;20088;-81
2022/02/06 01:12:54;;;;;;;93.13;65.82;;;;;;;;;;5030603;28;20017;-80
2022/02/06 01:15:25;;;;;;;77.50;53.63;;;;;;;;;;5029096;28;20021;-77
2022/02/06 01:20:27;;;;;;;88.00;56.65;;;;;;;;;;5028235;28;20085;-80
2022/02/06 01:23:01;;;;;;;86.97;60.03;;;;;;;;;;5031246;28;20021;-82
2022/02/06 01:25:33;;;;;;;88.72;59.95;;;;;;;;;;5027161;28;20045;-81
2022/02/06 01:28:11;;;;;;;88.32;60.80;;;;;;;;;;5029053;28;20037;-83
2022/02/06 01:30:54;;;;;;;99.80;68.45;;;;;;;;;;5031860;28;20029;-80
2022/02/06 01:33:29;;;;;;;98.97;64.70;;;;;;;;;;5026457;28;20033;-79
2022/02/06 01:36:45;;;;;;;104.47;71.82;;;;;;;;;;5028153;28;20030;-81
2022/02/06 01:41:20;;;;;;;94.72;65.40;;;;;;;;;;5031296;28;20140;-82
2022/02/06 01:43:52;;;;;;;101.20;71.03;;;;;;;;;;5029178;28;20109;-80
2022/02/06 01:46:39;;;;;;;97.85;64.72;;;;;;;;;;5028721;28;20108;-81
2022/02/06 02:48:11;;;;;;;65.75;42.30;;;;;;;;;;5024019;28;20473;-76
2022/02/06 02:50:41;;;;;;;74.28;48.88;;;;;;;;;;5022952;28;20385;-76
2022/02/06 02:53:45;;;;;;;68.82;46.20;;;;;;;;;;5026435;28;20112;-76
2022/02/06 02:58:52;;;;;;;85.40;54.33;;;;;;;;;;5021545;28;20041;-76
2022/02/06 03:01:37;;;;;;;82.88;57.17;;;;;;;;;;5022845;28;20428;-76
2022/02/06 03:04:03;;;;;;;81.25;56.83;;;;;;;;;;5031179;28;20579;-84
2022/02/06 03:06:29;;;;;;;82.97;55.90;;;;;;;;;;5028873;28;20108;-77
2022/02/06 03:08:57;;;;;;;79.05;53.80;;;;;;;;;;5014929;28;20423;-76
2022/02/06 03:11:23;;;;;;;84.53;55.88;;;;;;;;;;5017056;28;20018;-76
2022/02/06 03:16:20;;;;;;;69.40;45.72;;;;;;;;;;5031959;28;20116;-76
2022/02/06 03:18:58;;;;;;;80.60;52.47;;;;;;;;;;5032650;28;20392;-76
2022/02/06 03:21:28;;;;;;;71.10;49.08;;;;;;;;;;5032611;28;20080;-76
2022/02/06 03:23:56;;;;;;;90.88;59.53;;;;;;;;;;5033587;28;20013;-76
2022/02/06 03:26:23;;;;;;;74.78;50.83;;;;;;;;;;5032537;28;20476;-76
2022/02/06 03:28:50;;;;;;;81.72;54.45;;;;;;;;;;5033852;28;20087;-76
2022/02/06 03:31:16;;;;;;;61.40;41.50;;;;;;;;;;5033724;28;20069;-76
2022/02/06 03:33:43;;;;;;;77.60;50.47;;;;;;;;;;5033957;28;20204;-76
2022/02/06 03:36:09;;;;;;;88.90;59.38;;;;;;;;;;5029465;28;20050;-77
2022/02/06 03:38:36;;;;;;;101.45;70.93;;;;;;;;;;5013651;28;20026;-76
2022/02/06 03:41:06;;;;;;;109.68;73.85;;;;;;;;;;5026448;28;20111;-76
2022/02/06 03:46:10;;;;;;;96.78;64.68;;;;;;;;;;5014634;28;20034;-76
2022/02/06 03:48:54;;;;;;;109.40;74.65;;;;;;;;;;5014697;28;20429;-76
2022/02/06 03:51:24;;;;;;;;;;;;;;;;;;5028182;28;20108;-76
2022/02/06 03:53:52;;;;;;;111.60;69.90;;;;;;;;;;5031191;28;19912;-76
2022/02/06 03:56:20;;;;;;;106.40;71.35;;;;;;;;;;5013586;28;20326;-76
2022/02/06 03:58:47;;;;;;;124.07;77.32;;;;;;;;;;5013444;28;20029;-76
2022/02/06 04:01:13;;;;;;;116.40;78.80;;;;;;;;;;5012887;28;20022;-77
2022/02/06 04:03:39;;;;;;;130.63;85.28;;;;;;;;;;5014103;28;20018;-76
2022/02/06 04:06:05;;;;;;;128.52;90.20;;;;;;;;;;5013985;28;20033;-76
2022/02/06 04:08:34;;;;;;;143.95;94.53;;;;;;;;;;5014276;28;20118;-76
2022/02/06 04:11:03;;;;;;;189.30;119.68;;;;;;;;;;5013890;28;20030;-76
2022/02/06 04:13:32;;;;;;;181.52;116.53;;;;;;;;;;5033272;28;20132;-77
2022/02/06 04:16:00;;;;;;;198.90;126.35;;;;;;;;;;5032931;28;20542;-76
2022/02/06 04:20:53;;;;;;;178.85;114.97;;;;;;;;;;5032827;28;20025;-76
2022/02/06 04:23:19;;;;;;;182.27;119.65;;;;;;;;;;5031399;28;20381;-76
2022/02/06 04:25:45;;;;;;;219.32;134.63;;;;;;;;;;5033197;28;20044;-76
2022/02/06 04:28:11;;;;;;;200.05;122.43;;;;;;;;;;5032623;28;20030;-76
2022/02/06 04:30:37;;;;;;;191.63;123.20;;;;;;;;;;5031507;28;20026;-76
2022/02/06 04:33:07;;;;;;;208.93;128.27;;;;;;;;;;5031530;28;20030;-76
2022/02/06 04:35:36;;;;;;;200.48;124.40;;;;;;;;;;5013621;28;20113;-76
2022/02/06 04:40:47;;;;;;;159.73;97.68;;;;;;;;;;5032385;28;20121;-76
2022/02/06 05:29:20;;;;;;;1128.72;279.10;;;;;;;;;;5007846;28;20041;-76
2022/02/06 05:31:10;;;;;;;647.22;205.27;;;;;;;;;;5018056;28;20033;-76
2022/02/06 05:33:37;;;;;;;586.75;190.35;;;;;;;;;;5030179;28;20505;-76
2022/02/06 05:36:04;;;;;;;966.05;264.70;;;;;;;;;;5031487;28;20071;-76
2022/02/06 05:38:30;;;;;;;615.72;199.57;;;;;;;;;;5031319;28;20033;-76
2022/02/06 05:40:56;;;;;;;588.35;213.10;;;;;;;;;;5031047;28;20021;-76
2022/02/06 05:43:22;;;;;;;707.38;226.23;;;;;;;;;;5031667;28;20063;-75
2022/02/06 05:45:48;;;;;;;480.70;181.65;;;;;;;;;;5020911;28;20026;-76
2022/02/06 05:48:14;;;;;;;806.38;242.48;;;;;;;;;;5010853;28;20497;-75
2022/02/06 05:50:42;;;;;;;369.63;150.00;;;;;;;;;;5011052;28;20030;-76
2022/02/06 05:53:09;;;;;;;538.35;187.38;;;;;;;;;;5012950;28;20026;-76
2022/02/06 05:55:35;;;;;;;648.33;208.23;;;;;;;;;;5028063;28;20026;-76
2022/02/06 05:58:01;;;;;;;751.92;226.13;;;;;;;;;;5020503;28;20015;-75
2022/02/06 06:00:27;;;;;;;478.67;164.25;;;;;;;;;;5013937;28;20025;-75
2022/02/06 06:02:53;;;;;;;435.33;159.50;;;;;;;;;;5016056;28;20447;-75
2022/02/06 06:05:19;;;;;;;463.23;175.98;;;;;;;;;;5012262;28;20125;-76
2022/02/06 06:07:45;;;;;;;492.80;172.38;;;;;;;;;;5013129;28;20044;-76
2022/02/06 06:10:12;;;;;;;547.83;220.02;;;;;;;;;;5029758;28;20348;-75
2022/02/06 06:12:38;;;;;;;459.98;172.82;;;;;;;;;;5031031;28;20025;-75
2022/02/06 06:15:06;;;;;;;534.75;204.32;;;;;;;;;;5029371;28;20025;-77
2022/02/06 06:17:32;;;;;;;411.45;177.52;;;;;;;;;;5022938;28;20018;-76
2022/02/06 06:19:58;;;;;;;369.33;165.20;;;;;;;;;;5023599;28;20480;-76
2022/02/06 06:22:24;;;;;;;601.97;197.90;;;;;;;;;;5011816;28;20501;-76
2022/02/06 06:24:55;;;;;;;346.23;144.45;;;;;;;;;;5011821;28;20087;-78
2022/02/06 06:27:21;;;;;;;488.48;189.55;;;;;;;;;;5010605;28;20060;-77
2022/02/06 06:29:47;;;;;;;401.08;170.25;;;;;;;;;;5025954;28;20108;-75
2022/02/06 06:32:14;;;;;;;445.52;189.90;;;;;;;;;;5030899;28;20029;-76
2022/02/06 06:34:40;;;;;;;708.42;235.35;;;;;;;;;;5029539;28;20492;-75
2022/02/06 06:37:06;;;;;;;542.65;188.88;;;;;;;;;;5016114;28;20037;-76
2022/02/06 06:39:42;;;;;;;611.38;207.93;;;;;;;;;;5012317;28;20053;-75
2022/02/06 06:42:08;;;;;;;1757.32;410.33;;;;;;;;;;5026381;28;20404;-76
2022/02/06 06:44:35;;;;;;;734.97;227.90;;;;;;;;;;5030831;28;20115;-76
2022/02/06 06:47:01;;;;;;;966.50;268.25;;;;;;;;;;5021815;28;20096;-75
2022/02/06 06:49:27;;;;;;;926.63;253.85;;;;;;;;;;5011404;28;20029;-76
2022/02/06 06:51:56;;;;;;;980.17;264.67;;;;;;;;;;5032390;28;20021;-76
2022/02/06 06:54:23;;;;;;;1036.95;258.08;;;;;;;;;;5027423;28;20097;-75
2022/02/06 06:57:01;;;;;;;786.80;214.85;;;;;;;;;;5021885;28;20052;-76
2022/02/06 07:04:44;;;;;;;773.65;233.27;;;;;;;;;;5020266;28;20392;-76
2022/02/06 07:07:10;;;;;;;770.08;223.93;;;;;;;;;;5034263;28;20472;-76
2022/02/06 07:09:36;;;;;;;996.97;240.93;;;;;;;;;;5017118;28;20022;-76
2022/02/06 07:12:03;;;;;;;441.45;152.70;;;;;;;;;;5014058;28;20049;-76
2022/02/06 07:14:29;;;;;;;592.50;184.80;;;;;;;;;;5025489;28;20437;-76
2022/02/06 07:16:55;;;;;;;470.85;155.77;;;;;;;;;;5017894;28;20076;-76
2022/02/06 07:19:21;;;;;;;548.00;157.57;;;;;;;;;;5030347;28;20021;-76
2022/02/06 07:21:47;;;;;;;443.23;147.07;;;;;;;;;;5033226;28;20112;-76
2022/02/06 07:24:15;;;;;;;430.17;146.02;;;;;;;;;;5032912;28;20056;-76
2022/02/06 07:26:42;;;;;;;490.88;161.93;;;;;;;;;;5032622;28;20037;-75
2022/02/06 07:29:11;;;;;;;555.17;179.85;;;;;;;;;;5024466;28;20094;-76
2022/02/06 07:31:41;;;;;;;493.13;124.63;;;;;;;;;;5014975;28;20018;-76
2022/02/06 07:34:07;;;;;;;515.30;150.48;;;;;;;;;;5013506;28;20029;-76
2022/02/06 07:36:34;;;;;;;437.92;131.80;;;;;;;;;;5014967;28;20033;-76
2022/02/06 07:39:00;;;;;;;543.92;147.65;;;;;;;;;;5014687;28;20054;-76
2022/02/06 07:41:26;;;;;;;487.67;134.68;;;;;;;;;;5030504;28;20045;-75
2022/02/06 07:43:52;;;;;;;520.20;136.93;;;;;;;;;;5018515;28;20033;-76
2022/02/06 07:46:23;;;;;;;354.90;106.03;;;;;;;;;;5013069;28;20107;-76
2022/02/06 07:48:49;;;;;;;357.38;90.60;;;;;;;;;;5013229;28;20133;-76
2022/02/06 07:51:15;;;;;;;274.95;97.28;;;;;;;;;;5013288;28;20045;-76
2022/02/06 07:53:41;;;;;;;324.02;96.53;;;;;;;;;;5015229;28;20396;-76
2022/02/06 07:56:07;;;;;;;358.85;113.50;;;;;;;;;;5032250;28;20022;-76
2022/02/06 07:58:33;;;;;;;259.75;99.93;;;;;;;;;;5033410;28;20096;-76
2022/02/06 08:00:59;;;;;;;288.30;100.75;;;;;;;;;;5017550;28;20041;-76
2022/02/06 08:03:26;;;;;;;290.98;103.15;;;;;;;;;;5013481;28;20024;-75
2022/02/06 08:05:52;;;;;;;277.88;107.70;;;;;;;;;;5014252;28;20021;-76
2022/02/06 08:08:18;;;;;;;404.50;111.75;;;;;;;;;;5014284;28;20046;-76
2022/02/06 08:10:44;;;;;;;337.33;112.13;;;;;;;;;;5013662;28;20026;-76
2022/02/06 08:13:25;;;;;;;483.42;126.85;;;;;;;;;;5031772;28;20067;-76
2022/02/06 08:15:51;;;;;;;424.58;124.38;;;;;;;;;;5031743;28;20029;-76
2022/02/06 08:18:17;;;;;;;375.48;135.82;;;;;;;;;;5029291;28;20036;-77
2022/02/06 08:20:43;;;;;;;522.65;144.23;;;;;;;;;;5025745;28;20026;-77
2022/02/06 08:23:09;;;;;;;587.50;161.73;;;;;;;;;;5025962;28;20404;-76
2022/02/06 08:25:35;;;;;;;597.40;172.90;;;;;;;;;;5028512;28;20023;-78
2022/02/06 08:28:02;;;;;;;529.83;132.75;;;;;;;;;;5027282;28;20044;-77
2022/02/06 08:30:30;;;;;;;455.25;133.25;;;;;;;;;;5022167;28;20022;-76
2022/02/06 08:32:56;;;;;;;698.33;166.38;;;;;;;;;;5030478;28;20017;-77
2022/02/06 08:35:23;;;;;;;461.00;139.10;;;;;;;;;;5025480;28;20029;-84
2022/02/06 08:37:50;;;;;;;369.20;111.70;;;;;;;;;;5024121;28;20013;-87
2022/02/06 08:40:16;;;;;;;274.80;83.88;;;;;;;;;;5023500;28;20026;-78
2022/02/06 08:42:43;;;;;;;271.52;96.13;;;;;;;;;;5026258;28;20541;-83
2022/02/06 08:45:11;;;;;;;267.73;87.88;;;;;;;;;;5026708;28;20388;-76
2022/02/06 08:47:37;;;;;;;357.98;108.45;;;;;;;;;;5024444;28;20054;-77
2022/02/06 08:50:04;;;;;;;161.52;82.63;;;;;;;;;;5021044;28;20152;-77
2022/02/06 08:52:31;;;;;;;248.45;86.20;;;;;;;;;;5031526;28;20048;-76
2022/02/06 08:54:57;;;;;;;172.50;87.18;;;;;;;;;;5024899;28;20079;-76
2022/02/06 08:57:26;;;;;;;245.25;86.78;;;;;;;;;;5019690;28;20022;-76
2022/02/06 08:59:53;;;;;;;237.85;84.20;;;;;;;;;;5025861;28;20026;-77
2022/02/06 09:02:19;;;;;;;196.73;84.32;;;;;;;;;;5029813;28;20022;-77
2022/02/06 09:04:45;;;;;;;218.70;80.88;;;;;;;;;;5031639;28;20105;-77
2022/02/06 09:07:12;;;;;;;156.77;71.60;;;;;;;;;;5029823;28;20052;-77
2022/02/06 09:09:43;;;;;;;300.65;85.80;;;;;;;;;;5026031;28;20033;-77
2022/02/06 09:12:09;;;;;;;224.40;84.25;;;;;;;;;;5024793;28;20026;-76
2022/02/06 09:14:36;;;;;;;172.38;85.30;;;;;;;;;;5029796;28;20029;-77
2022/02/06 09:17:02;;;;;;;142.45;76.53;;;;;;;;;;5019631;28;20036;-76
2022/02/06 09:19:28;;;;;;;126.65;72.68;;;;;;;;;;5013018;28;20422;-77
2022/02/06 09:21:55;;;;;;;122.35;61.90;;;;;;;;;;5012547;28;20053;-77
2022/02/06 09:24:21;;;;;;;110.18;63.60;;;;;;;;;;5011464;28;20025;-76
2022/02/06 09:26:48;;;;;;;118.15;54.72;;;;;;;;;;5030458;28;20033;-76
2022/02/06 09:29:14;;;;;;;128.40;61.78;;;;;;;;;;5020182;28;20147;-76
2022/02/06 09:31:42;;;;;;;113.40;64.72;;;;;;;;;;5013099;28;20026;-76
2022/02/06 09:36:34;;;;;;;113.72;64.25;;;;;;;;;;5025113;28;20037;-76
2022/02/06 09:39:01;;;;;;;100.72;59.65;;;;;;;;;;5013002;28;20030;-76
2022/02/06 09:41:27;;;;;;;101.32;60.67;;;;;;;;;;5012623;28;20026;-76
2022/02/06 09:43:55;;;;;;;110.05;68.60;;;;;;;;;;5012591;28;20018;-76
2022/02/06 09:46:22;;;;;;;108.20;67.32;;;;;;;;;;5012060;28;20053;-77
2022/02/06 09:48:49;;;;;;;116.22;72.20;;;;;;;;;;5011147;28;20034;-76
2022/02/06 09:51:15;;;;;;;122.90;72.72;;;;;;;;;;5018742;28;20381;-75
2022/02/06 09:53:41;;;;;;;98.28;60.15;;;;;;;;;;5014155;28;20021;-76
2022/02/06 09:56:11;;;;;;;101.47;62.00;;;;;;;;;;5030223;28;20473;-76
2022/02/06 10:01:07;;;;;;;111.63;73.47;;;;;;;;;;5031219;28;20056;-77
2022/02/06 10:03:43;;;;;;;111.60;73.75;;;;;;;;;;5027251;28;20025;-76
2022/02/06 10:06:12;;;;;;;108.15;70.32;;;;;;;;;;5026622;28;20096;-77
2022/02/06 10:08:40;;;;;;;106.18;69.63;;;;;;;;;;5025910;28;20048;-76
2022/02/06 10:11:15;;;;;;;114.25;77.07;;;;;;;;;;5027952;28;20029;-76
2022/02/06 10:13:42;;;;;;;115.25;75.70;;;;;;;;;;5020588;28;20477;-76
2022/02/06 10:16:09;;;;;;;95.47;64.35;;;;;;;;;;5023990;28;20059;-76
2022/02/06 10:18:36;;;;;;;89.90;56.70;;;;;;;;;;5012715;28;20055;-76
2022/02/06 10:21:02;;;;;;;106.70;72.38;;;;;;;;;;5016242;28;20055;-76
2022/02/06 10:26:26;;;;;;;106.20;71.78;;;;;;;;;;5026127;28;20033;-77
2022/02/06 10:29:10;;;;;;;99.15;61.30;;;;;;;;;;5019387;28;20022;-76
2022/02/06 10:31:39;;;;;;;88.22;60.08;;;;;;;;;;5027516;28;20465;-76
2022/02/06 10:34:05;;;;;;;103.28;69.22;;;;;;;;;;5033393;28;20025;-77
2022/02/06 10:36:37;;;;;;;95.90;62.20;;;;;;;;;;5033128;28;20116;-77
2022/02/06 10:39:04;;;;;;;93.40;62.75;;;;;;;;;;5034786;28;20024;-76
2022/02/06 10:41:31;;;;;;;78.15;52.75;;;;;;;;;;5034582;28;20014;-77
2022/02/06 10:43:59;;;;;;;78.32;57.90;;;;;;;;;;5034860;28;20020;-77
2022/02/06 10:46:26;;;;;;;69.70;45.78;;;;;;;;;;5034678;28;20102;-78
2022/02/06 10:48:53;;;;;;;70.95;51.42;;;;;;;;;;5034694;28;20464;-77
2022/02/06 10:51:58;;;;;;;70.78;49.75;;;;;;;;;;5033266;28;20025;-77
2022/02/06 10:54:24;;;;;;;;;;;;;;;;;;5013146;28;20042;-76
2022/02/06 10:57:10;;;;;;;71.78;48.45;;;;;;;;;;5012338;28;20319;-77
2022/02/06 10:59:45;;;;;;;77.82;52.15;;;;;;;;;;5017396;28;20121;-77
2022/02/06 11:02:25;;;;;;;84.80;60.13;;;;;;;;;;5034122;28;20460;-77
2022/02/06 11:05:19;;;;;;;90.25;66.53;;;;;;;;;;5034191;28;20063;-77
2022/02/06 11:07:45;;;;;;;;;;;;;;;;;;5034759;28;20032;-76
2022/02/06 11:10:12;;;;;;;82.97;58.35;;;;;;;;;;5023638;28;20260;-76
2022/02/06 11:12:40;;;;;;;103.53;76.28;;;;;;;;;;5015384;28;20113;-77
2022/02/06 11:15:23;;;;;;;102.80;73.53;;;;;;;;;;5015190;28;20089;-76
2022/02/06 11:18:01;;;;;;;74.47;59.00;;;;;;;;;;5026585;28;20465;-77
2022/02/06 11:20:27;;;;;;;96.03;62.40;;;;;;;;;;5032994;28;20103;-76
2022/02/06 11:22:58;;;;;;;80.30;57.85;;;;;;;;;;5032802;28;20079;-76
2022/02/06 11:25:25;;;;;;;84.18;65.85;;;;;;;;;;5033852;28;20048;-76
2022/02/06 11:27:51;;;;;;;85.55;59.38;;;;;;;;;;5033506;28;20473;-77
2022/02/06 11:30:17;;;;;;;76.43;60.75;;;;;;;;;;5032671;28;20055;-77
2022/02/06 11:32:43;;;;;;;75.25;59.58;;;;;;;;;;5022581;28;20029;-77
2022/02/06 11:35:14;;;;;;;74.20;54.85;;;;;;;;;;5013577;28;20018;-76
2022/02/06 11:46:20;;;;;;;54.33;43.33;;;;;;;;;;5033529;28;20029;-77
2022/02/06 11:48:47;;;;;;;57.35;47.85;;;;;;;;;;5032263;28;20550;-77
2022/02/06 11:51:17;;;;;;;58.58;47.58;;;;;;;;;;5032092;28;20021;-77
2022/02/06 11:53:43;;;;;;;62.47;50.47;;;;;;;;;;5033160;28;20051;-77
2022/02/06 11:56:28;;;;;;;63.67;43.38;;;;;;;;;;5032235;28;20029;-77
2022/02/06 11:59:02;;;;;;;47.00;41.22;;;;;;;;;;5032153;28;20022;-79
2022/02/06 12:01:31;;;;;;;59.58;46.65;;;;;;;;;;5026234;28;20361;-77
2022/02/06 12:03:57;;;;;;;52.78;40.70;;;;;;;;;;5013016;28;20029;-77
2022/02/06 12:06:25;;;;;;;51.90;43.72;;;;;;;;;;5012980;28;20365;-78
2022/02/06 12:09:00;;;;;;;48.15;40.03;;;;;;;;;;5012967;28;20034;-77
2022/02/06 12:11:26;;;;;;;48.38;37.38;;;;;;;;;;5012873;28;20084;-77
2022/02/06 12:14:14;;;;;;;55.05;38.25;;;;;;;;;;5014417;28;20060;-77
2022/02/06 12:17:08;;;;;;;41.33;36.90;;;;;;;;;;5012840;28;20536;-77
2022/02/06 12:19:35;;;;;;;45.47;40.65;;;;;;;;;;5027797;28;20028;-77
2022/02/06 12:22:39;;;;;;;47.08;40.20;;;;;;;;;;5031546;28;20028;-78
2022/02/06 12:25:14;;;;;;;66.57;49.13;;;;;;;;;;5010373;28;20033;-79
2022/02/06 12:27:40;;;;;;;53.65;44.15;;;;;;;;;;5010433;28;20041;-76
2022/02/06 12:30:08;;;;;;;61.83;48.85;;;;;;;;;;5012605;28;20502;-78
2022/02/06 12:32:34;;;;;;;59.63;47.65;;;;;;;;;;5026498;28;20040;-78
2022/02/06 12:37:46;;;;;;;57.85;45.45;;;;;;;;;;5013727;28;20052;-77
2022/02/06 12:40:16;;;;;;;53.33;46.55;;;;;;;;;;5013971;28;20018;-78
2022/02/06 12:42:44;;;;;;;58.25;50.55;;;;;;;;;;5013635;28;20029;-77
2022/02/06 12:45:18;;;;;;;58.30;49.47;;;;;;;;;;5013655;28;20085;-76
2022/02/06 12:47:48;;;;;;;58.00;47.33;;;;;;;;;;5012961;28;20129;-76
2022/02/06 12:50:17;;;;;;;59.17;49.50;;;;;;;;;;5029829;28;20079;-76
2022/02/06 12:52:43;;;;;;;51.38;45.83;;;;;;;;;;5032049;28;20063;-76
2022/02/06 12:55:10;;;;;;;54.53;48.05;;;;;;;;;;5022662;28;20064;-76
2022/02/06 12:57:44;;;;;;;58.22;49.55;;;;;;;;;;5011926;28;20020;-76
2022/02/06 13:00:10;;;;;;;51.28;45.75;;;;;;;;;;5013585;28;20046;-75
2022/02/06 13:02:36;;;;;;;59.47;46.50;;;;;;;;;;5013500;28;20388;-77
2022/02/06 13:05:08;;;;;;;61.03;47.25;;;;;;;;;;5013102;28;20559;-78
2022/02/06 13:07:41;;;;;;;49.58;44.20;;;;;;;;;;5011781;28;20520;-78
2022/02/06 13:10:08;;;;;;;;;;;;;;;;;;5012230;28;20364;-77
2022/02/06 13:12:40;;;;;;;41.15;35.83;;;;;;;;;;5011833;28;19908;-76
2022/02/06 13:15:47;;;;;;;33.72;28.45;;;;;;;;;;5011819;28;20059;-76
2022/02/06 13:18:17;;;;;;;29.73;25.07;;;;;;;;;;5025359;28;20490;-76
2022/02/06 13:23:47;;;;;;;30.00;25.70;;;;;;;;;;5031535;28;20075;-77
2022/02/06 13:26:21;;;;;;;26.23;22.70;;;;;;;;;;5030568;28;20133;-77
2022/02/06 13:29:05;;;;;;;30.65;22.08;;;;;;;;;;5031683;28;20032;-75
2022/02/06 13:36:50;;;;;;;24.30;16.42;;;;;;;;;;5024099;28;20030;-75
2022/02/06 13:39:24;;;;;;;18.13;16.15;;;;;;;;;;5030265;28;20040;-78
2022/02/06 13:41:51;;;;;;;19.58;16.90;;;;;;;;;;5031451;28;20071;-77
2022/02/06 13:44:19;;;;;;;20.90;18.63;;;;;;;;;;5014926;28;20117;-78
2022/02/06 13:46:46;;;;;;;22.70;17.02;;;;;;;;;;5012137;28;20056;-75
2022/02/06 13:49:12;;;;;;;26.60;17.75;;;;;;;;;;5011047;28;20088;-77
2022/02/06 13:51:46;;;;;;;22.88;17.20;;;;;;;;;;5026073;28;20032;-76
2022/02/06 13:54:13;;;;;;;28.95;17.88;;;;;;;;;;5025047;28;20041;-75
2022/02/06 13:56:39;;;;;;;26.90;17.38;;;;;;;;;;5029472;28;20071;-78
2022/02/06 13:59:18;;;;;;;24.58;16.42;;;;;;;;;;5022171;28;20088;-76
2022/02/06 14:01:46;;;;;;;22.48;18.83;;;;;;;;;;5025015;28;20091;-76
2022/02/06 14:04:23;;;;;;;34.10;20.55;;;;;;;;;;5029759;28;20472;-79
2022/02/06 14:07:00;;;;;;;28.35;19.95;;;;;;;;;;5031366;28;20022;-78
2022/02/06 14:09:47;;;;;;;25.13;19.48;;;;;;;;;;5023103;28;20105;-75
2022/02/06 14:12:16;;;;;;;22.30;17.75;;;;;;;;;;5023384;28;20033;-79
2022/02/06 14:14:48;;;;;;;32.33;25.83;;;;;;;;;;5024099;28;20419;-76
2022/02/06 14:17:19;;;;;;;21.53;17.87;;;;;;;;;;5022595;28;20104;-77
2022/02/06 14:19:45;;;;;;;26.25;19.40;;;;;;;;;;5012491;28;20026;-77
2022/02/06 14:22:24;;;;;;;32.28;21.80;;;;;;;;;;5025838;28;20026;-76
2022/02/06 14:24:50;;;;;;;28.02;24.15;;;;;;;;;;5030697;28;20079;-76
2022/02/06 14:27:27;;;;;;;32.15;23.52;;;;;;;;;;5013685;28;20033;-76
2022/02/06 14:30:02;;;;;;;35.42;26.35;;;;;;;;;;5019347;28;20032;-78
2022/02/06 14:32:28;;;;;;;34.25;27.08;;;;;;;;;;5030620;28;20025;-76
2022/02/06 14:34:57;;;;;;;44.08;26.52;;;;;;;;;;5028127;28;20021;-77
2022/02/06 14:37:26;;;;;;;37.70;24.00;;;;;;;;;;5029197;28;20036;-76
2022/02/06 14:40:01;;;;;;;41.67;29.17;;;;;;;;;;5023490;28;20026;-78
2022/02/06 14:42:29;;;;;;;35.20;28.92;;;;;;;;;;5027847;28;20022;-77
2022/02/06 14:45:06;;;;;;;32.75;24.30;;;;;;;;;;5027763;28;20436;-78
2022/02/06 14:47:32;;;;;;;36.83;25.70;;;;;;;;;;5027659;28;20049;-78
2022/02/06 14:49:58;;;;;;;30.63;22.55;;;;;;;;;;5030153;28;20112;-78
2022/02/06 14:52:24;;;;;;;24.75;20.08;;;;;;;;;;5029546;28;20021;-77
2022/02/06 14:54:50;;;;;;;25.42;20.23;;;;;;;;;;5028261;28;20061;-78
2022/02/06 14:57:16;;;;;;;25.98;21.40;;;;;;;;;;5010832;28;20021;-76
2022/02/06 14:59:42;;;;;;;53.10;41.03;;;;;;;;;;5011612;28;20389;-77
2022/02/06 15:02:08;;;;;;;83.30;73.22;;;;;;;;;;5019884;28;20025;-78
2022/02/06 15:04:34;;;;;;;58.75;49.10;;;;;;;;;;5028068;28;20424;-77
2022/02/06 15:07:00;;;;;;;40.13;35.75;;;;;;;;;;5010435;28;20037;-75
2022/02/06 15:09:27;;;;;;;44.38;37.90;;;;;;;;;;5010428;28;20070;-76
2022/02/06 15:11:53;;;;;;;48.13;40.22;;;;;;;;;;5018561;28;20030;-78
2022/02/06 15:14:19;;;;;;;61.42;47.42;;;;;;;;;;5043629;28;20465;-76
2022/02/06 15:16:46;;;;;;;52.95;39.03;;;;;;;;;;5033148;28;20420;-76
2022/02/06 15:19:18;;;;;;;52.75;35.70;;;;;;;;;;5015203;28;20549;-78
2022/02/06 15:21:44;;;;;;;57.42;34.60;;;;;;;;;;5026813;28;20022;-75
2022/02/06 15:24:12;;;;;;;44.60;33.65;;;;;;;;;;5034526;28;20022;-77
2022/02/06 15:26:38;;;;;;;46.45;32.90;;;;;;;;;;5015017;28;20026;-75
2022/02/06 15:29:04;;;;;;;49.97;35.50;;;;;;;;;;5026510;28;20029;-76
2022/02/06 15:31:30;;;;;;;47.42;39.70;;;;;;;;;;5032733;28;20052;-78
2022/02/06 15:33:57;;;;;;;55.42;43.08;;;;;;;;;;5032167;28;20022;-77
2022/02/06 15:36:25;;;;;;;72.85;50.78;;;;;;;;;;5032430;28;20022;-78
2022/02/06 15:38:51;;;;;;;59.47;48.80;;;;;;;;;;5029635;28;20040;-77
2022/02/06 15:41:19;;;;;;;76.43;53.40;;;;;;;;;;5033606;28;20433;-76
2022/02/06 15:43:45;;;;;;;74.07;57.35;;;;;;;;;;5032579;28;20026;-76
2022/02/06 15:46:11;;;;;;;66.38;45.42;;;;;;;;;;5032360;28;20358;-76
2022/02/06 15:48:37;;;;;;;91.28;62.47;;;;;;;;;;5034345;28;20064;-77
2022/02/06 15:51:03;;;;;;;138.20;114.90;;;;;;;;;;5033904;28;20022;-77
2022/02/06 15:53:30;;;;;;;89.82;65.10;;;;;;;;;;5033160;28;20024;-76
2022/02/06 15:55:56;;;;;;;104.65;78.07;;;;;;;;;;5016588;28;20112;-77
2022/02/06 15:58:22;;;;;;;121.50;88.80;;;;;;;;;;5014156;28;20383;-77
2022/02/06 16:00:48;;;;;;;180.25;128.57;;;;;;;;;;5013371;28;20458;-76
2022/02/06 16:03:14;;;;;;;207.65;145.15;;;;;;;;;;5014557;28;20477;-77
2022/02/06 16:05:40;;;;;;;183.50;128.23;;;;;;;;;;5016471;28;20033;-77
2022/02/06 16:08:06;;;;;;;192.48;144.68;;;;;;;;;;5025534;28;20044;-77
2022/02/06 16:10:32;;;;;;;233.80;156.13;;;;;;;;;;5019469;28;20058;-76
2022/02/06 16:12:58;;;;;;;323.67;211.57;;;;;;;;;;5014803;28;20089;-76
2022/02/06 16:15:24;;;;;;;193.20;139.43;;;;;;;;;;5014409;28;20018;-76
2022/02/06 16:17:50;;;;;;;257.85;167.23;;;;;;;;;;5014708;28;20080;-76
2022/02/06 16:20:18;;;;;;;311.77;210.07;;;;;;;;;;5031027;28;20021;-77
2022/02/06 16:22:44;;;;;;;315.92;211.32;;;;;;;;;;5033666;28;20021;-77
2022/02/06 16:25:10;;;;;;;338.38;232.18;;;;;;;;;;5031356;28;20465;-76
2022/02/06 16:27:36;;;;;;;294.20;205.88;;;;;;;;;;5033556;28;20033;-77
2022/02/06 16:30:03;;;;;;;180.75;131.88;;;;;;;;;;5031662;28;20357;-78
2022/02/06 16:32:29;;;;;;;176.32;124.65;;;;;;;;;;5032815;28;20025;-77
2022/02/06 16:34:56;;;;;;;171.32;123.13;;;;;;;;;;5024054;28;20481;-79
2022/02/06 16:37:22;;;;;;;174.38;123.72;;;;;;;;;;5012089;28;20030;-78
2022/02/06 16:39:48;;;;;;;160.57;113.53;;;;;;;;;;5014534;28;20473;-79
2022/02/06 16:42:15;;;;;;;149.18;104.07;;;;;;;;;;5031354;28;20063;-78
2022/02/06 16:44:42;;;;;;;154.90;102.57;;;;;;;;;;5032535;28;20045;-77
2022/02/06 16:47:08;;;;;;;120.30;84.10;;;;;;;;;;5030759;28;20053;-77
2022/02/06 16:49:35;;;;;;;128.85;89.47;;;;;;;;;;5032929;28;20530;-78
2022/02/06 16:52:01;;;;;;;117.78;83.30;;;;;;;;;;5031381;28;20029;-78
2022/02/06 16:54:27;;;;;;;198.60;130.00;;;;;;;;;;5030991;28;20036;-78
2022/02/06 16:56:53;;;;;;;165.90;117.30;;;;;;;;;;5030818;28;20030;-78
2022/02/06 16:59:20;;;;;;;192.45;122.38;;;;;;;;;;5032265;28;20024;-78
2022/02/06 17:01:46;;;;;;;184.23;119.47;;;;;;;;;;5030947;28;20507;-78
2022/02/06 17:04:12;;;;;;;166.32;117.10;;;;;;;;;;5032102;28;20033;-79